Time;durP1;ratioP1;P1;durP2;ratioP2;P2;SDS_P1;SDS_P2;PMS_P1;PMS_P2;Temp;Humidity;BMP_temperature;BMP_pressure;BME280_temperature;BME280_humidity;BME280_pressure;Samples;Min_cycle;Max_cycle;Signal;HPM_P1;HPM_P2
2021/01/26 00:00:59;;;;;;;15.75;10.63;;;7.60;99.90;;;;;;5087373;28;20078;-81
2021/01/26 00:03:25;;;;;;;13.13;7.75;;;7.60;99.90;;;;;;5071677;28;20017;-80
2021/01/26 00:05:51;;;;;;;13.55;8.10;;;7.70;99.90;;;;;;5059523;28;20447;-80
2021/01/26 00:08:18;;;;;;;11.55;6.85;;;7.70;99.90;;;;;;5079928;28;20518;-75
2021/01/26 00:10:44;;;;;;;11.13;6.75;;;7.70;99.90;;;;;;5075256;28;20028;-80
2021/01/26 00:13:10;;;;;;;10.95;6.43;;;7.80;99.90;;;;;;5087471;28;20036;-83
2021/01/26 00:15:36;;;;;;;10.70;5.85;;;7.80;99.90;;;;;;5086369;28;20040;-82
2021/01/26 00:18:03;;;;;;;7.60;4.63;;;7.90;99.90;;;;;;5078556;28;20051;-80
2021/01/26 00:20:29;;;;;;;7.25;3.63;;;7.90;99.90;;;;;;5073493;28;20066;-80
2021/01/26 00:22:55;;;;;;;5.45;3.38;;;8.00;99.90;;;;;;5081921;28;20029;-81
2021/01/26 00:25:32;;;;;;;7.53;4.18;;;8.00;99.90;;;;;;5096535;28;20141;-81
2021/01/26 00:27:58;;;;;;;4.78;2.83;;;8.10;99.90;;;;;;5074804;28;20109;-79
2021/01/26 00:30:27;;;;;;;4.90;2.88;;;8.20;99.90;;;;;;5094967;28;20473;-80
2021/01/26 00:32:53;;;;;;;5.55;2.67;;;8.20;99.90;;;;;;5091770;28;20115;-81
2021/01/26 00:35:23;;;;;;;4.80;3.30;;;8.20;99.90;;;;;;5085775;28;20147;-81
2021/01/26 00:37:48;;;;;;;6.70;4.25;;;8.20;99.90;;;;;;5093393;28;20016;-81
2021/01/26 00:40:16;;;;;;;5.50;3.90;;;8.10;99.60;;;;;;5081255;28;20052;-80
2021/01/26 00:42:42;;;;;;;4.78;3.67;;;7.90;98.20;;;;;;5061635;28;20073;-80
2021/01/26 00:45:09;;;;;;;5.32;3.67;;;7.70;97.70;;;;;;5069651;28;20497;-81
2021/01/26 00:47:35;;;;;;;5.78;3.63;;;7.40;96.90;;;;;;5084160;28;20402;-82
2021/01/26 00:50:02;;;;;;;5.35;3.45;;;7.20;97.00;;;;;;5084784;28;20510;-82
2021/01/26 00:52:27;;;;;;;6.50;4.07;;;7.10;97.10;;;;;;5062912;28;20028;-81
2021/01/26 00:54:53;;;;;;;5.38;3.78;;;6.90;97.30;;;;;;5067211;28;20024;-81
2021/01/26 00:57:19;;;;;;;5.80;4.60;;;6.80;97.00;;;;;;5087484;28;20028;-82
2021/01/26 00:59:49;;;;;;;6.93;4.15;;;6.60;96.90;;;;;;5069918;28;20372;-82
2021/01/26 01:02:16;;;;;;;23.83;9.90;;;6.50;97.10;;;;;;5068398;28;20081;-81
2021/01/26 01:04:43;;;;;;;35.92;17.48;;;6.40;96.90;;;;;;5090469;28;20107;-81
2021/01/26 01:07:09;;;;;;;81.78;33.38;;;6.30;96.90;;;;;;5089985;28;20028;-81
2021/01/26 01:09:35;;;;;;;42.05;17.13;;;6.20;96.70;;;;;;5069120;28;20032;-82
2021/01/26 01:12:01;;;;;;;17.95;9.18;;;6.00;96.80;;;;;;5065953;28;20020;-81
2021/01/26 01:14:27;;;;;;;25.63;10.38;;;5.90;96.70;;;;;;5084016;28;20083;-78
2021/01/26 01:16:54;;;;;;;28.58;14.98;;;5.80;96.70;;;;;;5089698;28;20063;-81
2021/01/26 01:19:20;;;;;;;21.50;12.40;;;5.70;97.30;;;;;;5064280;28;20501;-81
2021/01/26 01:21:46;;;;;;;51.45;22.58;;;5.70;97.40;;;;;;5089240;28;20024;-82
2021/01/26 01:24:13;;;;;;;38.25;18.90;;;5.60;97.40;;;;;;5086632;28;20024;-82
2021/01/26 01:26:38;;;;;;;32.83;15.35;;;5.50;97.00;;;;;;5089393;28;20032;-80
2021/01/26 01:29:05;;;;;;;12.93;7.47;;;5.50;97.00;;;;;;5064456;28;20166;-81
2021/01/26 01:31:30;;;;;;;13.02;7.93;;;5.40;96.50;;;;;;5074934;28;20032;-78
2021/01/26 01:33:56;;;;;;;9.13;5.38;;;5.30;96.90;;;;;;5087500;28;20359;-81
2021/01/26 01:36:22;;;;;;;11.35;5.40;;;5.20;97.00;;;;;;5087434;28;20119;-81
2021/01/26 01:38:48;;;;;;;7.32;4.88;;;5.20;97.20;;;;;;5081057;28;20386;-82
2021/01/26 01:41:14;;;;;;;14.60;7.35;;;5.20;97.10;;;;;;5075409;28;20600;-78
2021/01/26 01:43:40;;;;;;;10.15;6.03;;;5.10;97.30;;;;;;5080496;28;20036;-82
2021/01/26 01:46:13;;;;;;;8.02;5.05;;;5.10;97.40;;;;;;5065493;28;20390;-81
2021/01/26 01:48:40;;;;;;;9.93;5.50;;;5.20;96.90;;;;;;5080867;28;20085;-81
2021/01/26 01:51:13;;;;;;;14.30;7.43;;;5.10;97.00;;;;;;5069231;28;20042;-79
2021/01/26 01:53:47;;;;;;;12.50;5.57;;;5.10;97.10;;;;;;5078832;28;20032;-82
2021/01/26 01:56:23;;;;;;;13.32;5.93;;;5.00;97.00;;;;;;5079323;28;20078;-81
2021/01/26 01:58:55;;;;;;;20.63;6.47;;;5.00;97.00;;;;;;5088648;28;20465;-80
2021/01/26 02:01:24;;;;;;;17.38;6.32;;;4.90;96.80;;;;;;5091861;28;20101;-81
2021/01/26 02:03:54;;;;;;;13.13;5.78;;;4.90;96.90;;;;;;5085856;28;20039;-80
2021/01/26 02:06:25;;;;;;;13.85;6.03;;;4.90;96.90;;;;;;5088848;28;20467;-81
2021/01/26 02:08:56;;;;;;;15.15;6.95;;;4.90;96.90;;;;;;5066461;28;20094;-80
2021/01/26 02:11:23;;;;;;;22.70;9.32;;;4.90;97.00;;;;;;5060466;28;20501;-82
2021/01/26 02:13:50;;;;;;;21.15;8.02;;;4.80;96.70;;;;;;5067877;28;20093;-72
2021/01/26 02:16:41;;;;;;;35.30;8.85;;;4.80;96.50;;;;;;5089320;28;20036;-82
2021/01/26 02:19:19;;;;;;;16.92;6.35;;;4.70;96.20;;;;;;5062223;28;20488;-80
2021/01/26 02:22:05;;;;;;;13.25;5.88;;;4.60;95.90;;;;;;5071367;28;20070;-83
2021/01/26 02:25:08;;;;;;;15.10;8.32;;;4.50;96.00;;;;;;5086333;28;20036;-82
2021/01/26 02:28:01;;;;;;;7.72;4.40;;;4.50;96.00;;;;;;5091245;28;20027;-82
2021/01/26 02:30:35;;;;;;;7.43;4.70;;;4.40;95.80;;;;;;5082252;28;20047;-83
2021/01/26 02:33:28;;;;;;;8.85;5.53;;;4.40;95.90;;;;;;5067112;28;20029;-83
2021/01/26 02:36:08;;;;;;;6.68;4.80;;;4.30;96.00;;;;;;5089513;28;20039;-82
2021/01/26 02:39:09;;;;;;;7.78;5.07;;;4.20;96.00;;;;;;5080329;28;20032;-82
2021/01/26 02:41:43;;;;;;;7.93;5.50;;;4.20;96.10;;;;;;5069663;28;20494;-80
2021/01/26 02:44:27;;;;;;;7.95;5.30;;;4.10;96.10;;;;;;5073171;28;20475;-80
2021/01/26 02:47:28;;;;;;;9.45;5.78;;;4.10;96.10;;;;;;5089300;28;20086;-80
2021/01/26 02:50:02;;;;;;;10.07;6.03;;;4.10;96.10;;;;;;5041637;28;20074;-80
2021/01/26 02:52:51;;;;;;;11.60;6.45;;;4.00;96.10;;;;;;5082920;28;20024;-80
2021/01/26 02:55:38;;;;;;;11.13;6.38;;;4.00;96.00;;;;;;5082557;28;20040;-81
2021/01/26 02:58:21;;;;;;;11.40;6.60;;;4.00;96.10;;;;;;5082707;28;20535;-81
2021/01/26 03:00:52;;;;;;;11.52;6.85;;;3.90;96.10;;;;;;5076743;28;20032;-79
2021/01/26 03:03:32;;;;;;;10.45;6.18;;;3.90;96.00;;;;;;5067044;28;20093;-80
2021/01/26 03:06:04;;;;;;;10.32;5.68;;;3.90;96.10;;;;;;5076172;28;20123;-83
2021/01/26 03:08:52;;;;;;;11.18;6.55;;;3.90;96.60;;;;;;5083387;28;20028;-76
2021/01/26 03:11:27;;;;;;;13.65;7.60;;;4.00;96.50;;;;;;5080704;28;20490;-87
2021/01/26 03:14:03;;;;;;;12.02;7.75;;;4.00;96.40;;;;;;5070589;28;20115;-85
2021/01/26 03:16:31;;;;;;;13.25;7.90;;;4.10;96.40;;;;;;5075756;28;20033;-84
2021/01/26 03:19:30;;;;;;;11.50;7.03;;;4.10;96.40;;;;;;5055756;28;20043;-85
2021/01/26 03:22:00;;;;;;;12.48;7.57;;;4.10;96.40;;;;;;5081757;28;20048;-81
2021/01/26 03:24:32;;;;;;;13.57;8.68;;;4.10;96.20;;;;;;5061058;28;20024;-83
2021/01/26 03:27:01;;;;;;;15.02;8.70;;;4.10;96.20;;;;;;5084562;28;20517;-83
2021/01/26 03:29:30;;;;;;;15.32;9.00;;;4.10;95.90;;;;;;5086735;28;20021;-81
2021/01/26 03:32:01;;;;;;;14.82;8.60;;;4.20;96.10;;;;;;5078079;28;20091;-84
2021/01/26 03:34:27;;;;;;;14.85;9.20;;;4.20;95.80;;;;;;5094813;28;20043;-83
2021/01/26 03:36:52;;;;;;;21.00;9.00;;;4.20;95.80;;;;;;5083667;28;20043;-83
2021/01/26 03:39:20;;;;;;;21.13;9.80;;;4.20;95.90;;;;;;5084746;28;20032;-82
2021/01/26 03:41:46;;;;;;;22.23;10.30;;;4.20;95.90;;;;;;5077010;28;20107;-83
2021/01/26 03:44:13;;;;;;;24.25;11.73;;;4.20;95.80;;;;;;5078314;28;20039;-82
2021/01/26 03:46:46;;;;;;;19.13;10.02;;;4.30;95.80;;;;;;5082604;28;20041;-82
2021/01/26 03:49:49;;;;;;;19.95;10.55;;;4.30;95.50;;;;;;5073962;28;20431;-82
2021/01/26 03:52:44;;;;;;;21.27;10.90;;;4.30;95.70;;;;;;5089685;28;20043;-79
2021/01/26 03:55:38;;;;;;;20.23;10.60;;;4.30;95.40;;;;;;5079682;28;20040;-81
2021/01/26 03:59:02;;;;;;;25.70;10.52;;;4.30;95.30;;;;;;5069297;28;20103;-79
2021/01/26 04:01:39;;;;;;;19.02;9.23;;;4.30;95.30;;;;;;5032404;28;20399;-80
2021/01/26 04:04:33;;;;;;;15.70;8.43;;;4.20;95.00;;;;;;5044474;28;20029;-79
2021/01/26 04:07:03;;;;;;;19.67;10.27;;;4.20;94.90;;;;;;5081315;28;20086;-79
2021/01/26 04:09:37;;;;;;;19.13;10.48;;;4.20;94.80;;;;;;5065798;28;20470;-79
2021/01/26 04:12:15;;;;;;;20.17;10.32;;;4.20;94.40;;;;;;5080027;28;20409;-77
2021/01/26 04:14:47;;;;;;;16.10;8.98;;;4.10;94.10;;;;;;5096553;28;20038;-80
2021/01/26 04:17:21;;;;;;;36.40;15.57;;;4.20;94.40;;;;;;5090022;28;20040;-80
2021/01/26 04:20:02;;;;;;;23.73;11.20;;;4.20;93.90;;;;;;5075072;28;20034;-77
2021/01/26 04:22:28;;;;;;;61.03;23.13;;;4.10;93.90;;;;;;5061519;28;20025;-80
2021/01/26 04:24:54;;;;;;;67.55;25.77;;;4.10;93.00;;;;;;5085886;28;20025;-80
2021/01/26 04:27:22;;;;;;;54.05;21.73;;;4.10;93.30;;;;;;5061563;28;20425;-82
2021/01/26 04:29:48;;;;;;;35.85;17.10;;;4.10;93.10;;;;;;5089920;28;20085;-81
2021/01/26 04:32:17;;;;;;;54.97;21.52;;;4.10;93.50;;;;;;5082284;28;20028;-76
2021/01/26 04:34:43;;;;;;;33.75;12.88;;;4.00;93.30;;;;;;5089799;28;20042;-76
2021/01/26 04:37:08;;;;;;;27.02;12.98;;;4.00;93.20;;;;;;5071394;28;20020;-77
2021/01/26 04:39:34;;;;;;;43.75;17.40;;;4.00;93.10;;;;;;5082917;28;20142;-77
2021/01/26 04:42:23;;;;;;;37.92;16.85;;;4.00;92.70;;;;;;5083114;28;20051;-77
2021/01/26 04:44:57;;;;;;;89.65;32.80;;;4.00;92.70;;;;;;5088758;28;20383;-76
2021/01/26 04:47:25;;;;;;;87.88;33.63;;;3.90;92.20;;;;;;5082451;28;20133;-77
2021/01/26 04:50:12;;;;;;;115.30;46.42;;;3.90;92.30;;;;;;5088639;28;20142;-75
2021/01/26 04:52:56;;;;;;;97.55;38.67;;;3.90;92.30;;;;;;5083062;28;20082;-68
2021/01/26 04:56:13;;;;;;;84.93;37.58;;;3.90;92.00;;;;;;5070631;28;20059;-81
2021/01/26 04:59:07;;;;;;;32.42;16.40;;;3.90;92.30;;;;;;5042696;28;20092;-83
2021/01/26 05:01:54;;;;;;;33.65;14.95;;;3.80;92.60;;;;;;5031862;28;20064;-77
2021/01/26 05:04:23;;;;;;;49.22;21.52;;;3.90;92.10;;;;;;5063605;28;20432;-78
2021/01/26 05:07:00;;;;;;;43.38;18.48;;;3.90;92.40;;;;;;5065906;28;20036;-78
2021/01/26 05:09:29;;;;;;;32.85;13.52;;;3.90;92.10;;;;;;5090225;28;20035;-81
2021/01/26 05:11:57;;;;;;;45.58;19.63;;;3.90;92.10;;;;;;5079426;28;20020;-78
2021/01/26 05:14:28;;;;;;;46.03;17.88;;;4.00;91.90;;;;;;5061736;28;20032;-72
2021/01/26 05:16:58;;;;;;;46.65;20.20;;;3.90;91.60;;;;;;5076229;28;20028;-87
2021/01/26 05:19:47;;;;;;;35.75;15.10;;;3.90;91.20;;;;;;5075398;28;20020;-79
2021/01/26 05:22:26;;;;;;;29.00;11.60;;;3.90;91.20;;;;;;5086596;28;20025;-81
2021/01/26 05:25:12;;;;;;;17.85;8.93;;;3.90;91.10;;;;;;5087855;28;20031;-80
2021/01/26 05:27:39;;;;;;;23.10;10.10;;;3.90;91.10;;;;;;5071185;28;20020;-79
2021/01/26 05:30:10;;;;;;;23.55;10.35;;;3.90;91.20;;;;;;5068683;28;20485;-79
2021/01/26 05:32:37;;;;;;;25.30;10.75;;;3.90;91.40;;;;;;5073563;28;20473;-80
2021/01/26 05:35:04;;;;;;;61.83;23.10;;;3.90;91.40;;;;;;5071651;28;20180;-80
2021/01/26 05:37:32;;;;;;;44.95;17.75;;;3.90;91.10;;;;;;5078967;28;20036;-78
2021/01/26 05:40:02;;;;;;;48.20;17.73;;;4.00;90.70;;;;;;5093193;28;20034;-80
2021/01/26 05:42:29;;;;;;;34.80;15.88;;;4.00;90.70;;;;;;5072180;28;20029;-84
2021/01/26 05:45:03;;;;;;;71.88;26.35;;;4.00;90.40;;;;;;5076813;28;20035;-79
2021/01/26 05:47:36;;;;;;;36.83;14.32;;;3.90;90.50;;;;;;5070653;28;20075;-80
2021/01/26 05:50:03;;;;;;;59.92;23.00;;;3.90;89.70;;;;;;5059829;28;20020;-80
2021/01/26 05:52:40;;;;;;;63.78;23.27;;;3.90;89.70;;;;;;5089383;28;20107;-80
2021/01/26 05:55:25;;;;;;;34.50;13.65;;;3.90;89.00;;;;;;5077277;28;20036;-80
2021/01/26 05:57:53;;;;;;;21.43;9.60;;;3.80;89.40;;;;;;5077679;28;20394;-79
2021/01/26 06:00:21;;;;;;;28.13;9.90;;;3.80;89.40;;;;;;5069888;28;20332;-74
2021/01/26 06:02:48;;;;;;;66.10;15.95;;;3.80;89.80;;;;;;5083820;28;20484;-82
2021/01/26 06:05:22;;;;;;;26.35;10.95;;;3.80;88.90;;;;;;5060394;28;20505;-76
2021/01/26 06:08:06;;;;;;;21.10;9.63;;;3.90;88.70;;;;;;5063270;28;20035;-75
2021/01/26 06:10:32;;;;;;;49.92;17.83;;;3.90;89.50;;;;;;5086551;28;20152;-79
2021/01/26 06:12:59;;;;;;;90.13;33.80;;;4.00;89.70;;;;;;5091612;28;20402;-76
2021/01/26 06:15:28;;;;;;;89.45;31.92;;;4.10;88.90;;;;;;5065110;28;20064;-79
2021/01/26 06:18:14;;;;;;;116.30;40.80;;;4.20;87.60;;;;;;5059269;28;20028;-79
2021/01/26 06:20:40;;;;;;;83.53;33.72;;;4.20;86.80;;;;;;5077287;28;20024;-79
2021/01/26 06:23:16;;;;;;;129.85;43.65;;;4.20;86.10;;;;;;5071297;28;20020;-80
2021/01/26 06:25:44;;;;;;;;;;;4.20;86.30;;;;;;5092563;28;20466;-80
2021/01/26 06:28:47;;;;;;;94.47;34.67;;;4.30;86.20;;;;;;5093616;28;20192;-80
2021/01/26 06:31:57;;;;;;;55.42;23.50;;;4.30;85.50;;;;;;5072613;28;20039;-80
2021/01/26 06:34:39;;;;;;;64.25;27.95;;;4.30;84.60;;;;;;5088478;28;20032;-80
2021/01/26 06:37:22;;;;;;;83.93;32.05;;;4.20;84.00;;;;;;5082634;28;20474;-80
2021/01/26 06:40:14;;;;;;;47.88;23.52;;;4.10;84.30;;;;;;5093994;28;20061;-80
2021/01/26 06:43:02;;;;;;;23.48;12.10;;;4.10;84.70;;;;;;5075828;28;20024;-79
2021/01/26 06:45:39;;;;;;;19.67;11.30;;;4.10;84.70;;;;;;5093317;28;20050;-79
2021/01/26 06:48:29;;;;;;;16.02;7.72;;;4.00;84.50;;;;;;5093389;28;20048;-79
2021/01/26 06:51:03;;;;;;;15.73;8.80;;;4.00;84.20;;;;;;5093827;28;20093;-79
2021/01/26 06:53:29;;;;;;;18.08;10.60;;;3.90;84.00;;;;;;5072720;28;20035;-79
2021/01/26 06:56:10;;;;;;;16.92;9.27;;;3.90;83.80;;;;;;5093098;28;20032;-78
2021/01/26 06:58:47;;;;;;;15.70;8.52;;;3.80;83.60;;;;;;5093434;28;20012;-78
2021/01/26 07:01:39;;;;;;;15.55;7.53;;;3.70;83.90;;;;;;5093915;28;20028;-79
2021/01/26 07:04:35;;;;;;;16.50;8.88;;;3.70;83.90;;;;;;5091703;28;20078;-79
2021/01/26 07:07:21;;;;;;;16.30;10.20;;;3.70;84.10;;;;;;5093530;28;20078;-79
2021/01/26 07:10:38;;;;;;;17.90;9.35;;;3.60;83.90;;;;;;5074814;28;20043;-79
2021/01/26 07:13:33;;;;;;;15.40;8.32;;;3.50;83.90;;;;;;5048232;28;20036;-80
2021/01/26 07:16:08;;;;;;;16.02;9.10;;;3.50;84.30;;;;;;5049456;28;20119;-79
2021/01/26 07:18:51;;;;;;;;;;;3.50;84.30;;;;;;5075721;28;20019;-79
2021/01/26 07:21:41;;;;;;;17.02;9.63;;;3.50;84.40;;;;;;5074776;28;19939;-79
2021/01/26 07:24:14;;;;;;;19.48;10.48;;;3.40;84.50;;;;;;5064139;28;20092;-80
2021/01/26 07:26:50;;;;;;;21.23;10.15;;;3.40;84.60;;;;;;5093245;28;20108;-80
2021/01/26 07:29:31;;;;;;;18.52;9.73;;;3.50;84.80;;;;;;5075197;28;20021;-79
2021/01/26 07:32:15;;;;;;;25.75;11.55;;;3.40;84.90;;;;;;5061101;28;20034;-80
2021/01/26 07:35:01;;;;;;;17.52;8.68;;;3.50;85.40;;;;;;5092959;28;20058;-79
2021/01/26 07:38:02;;;;;;;31.83;15.75;;;3.60;85.80;;;;;;5093164;28;20020;-81
2021/01/26 07:40:27;;;;;;;25.67;11.05;;;3.60;85.00;;;;;;5032147;28;20021;-80
2021/01/26 07:42:57;;;;;;;34.17;16.77;;;3.60;84.80;;;;;;5084943;28;20462;-80
2021/01/26 07:46:05;;;;;;;29.98;13.30;;;3.70;84.90;;;;;;5074924;28;20046;-81
2021/01/26 07:48:46;;;;;;;23.42;10.40;;;3.70;84.80;;;;;;5054305;28;20045;-81
2021/01/26 07:51:20;;;;;;;22.25;12.30;;;3.70;84.90;;;;;;5093047;28;20024;-80
2021/01/26 07:54:21;;;;;;;33.03;14.43;;;3.80;84.70;;;;;;5074860;28;20030;-79
2021/01/26 07:56:47;;;;;;;30.45;13.40;;;3.80;84.10;;;;;;5041784;28;20060;-78
2021/01/26 07:59:44;;;;;;;33.83;15.20;;;3.80;84.20;;;;;;5093266;28;20409;-79
2021/01/26 08:02:18;;;;;;;28.50;12.40;;;3.90;83.80;;;;;;5073539;28;20375;-79
2021/01/26 08:04:44;;;;;;;26.17;12.95;;;3.90;83.90;;;;;;5074467;28;20032;-79
2021/01/26 08:07:27;;;;;;;28.77;13.60;;;3.90;84.00;;;;;;5092960;28;20082;-79
2021/01/26 08:09:54;;;;;;;48.78;18.23;;;3.90;84.00;;;;;;5092894;28;20032;-79
2021/01/26 08:12:39;;;;;;;30.83;11.02;;;3.90;83.30;;;;;;5074725;28;20028;-79
2021/01/26 08:15:20;;;;;;;28.95;12.98;;;3.90;83.40;;;;;;5061583;28;20082;-78
2021/01/26 08:17:47;;;;;;;23.10;10.25;;;3.90;83.30;;;;;;5074584;28;20032;-79
2021/01/26 08:20:33;;;;;;;20.63;10.13;;;3.90;83.40;;;;;;5093754;28;20028;-79
2021/01/26 08:23:03;;;;;;;17.88;8.98;;;3.90;82.80;;;;;;5096397;28;20497;-79
2021/01/26 08:25:31;;;;;;;24.95;11.25;;;3.90;82.90;;;;;;5078121;28;20032;-80
2021/01/26 08:28:00;;;;;;;29.42;14.07;;;3.80;82.70;;;;;;5077943;28;20055;-79
2021/01/26 08:30:50;;;;;;;28.13;14.65;;;3.80;82.70;;;;;;5096007;28;20378;-79
2021/01/26 08:33:21;;;;;;;31.48;13.27;;;3.80;83.20;;;;;;5077922;28;20397;-79
2021/01/26 08:36:10;;;;;;;31.42;13.50;;;3.90;83.30;;;;;;5078084;28;20051;-79
2021/01/26 08:38:55;;;;;;;30.23;13.50;;;3.90;83.30;;;;;;5095925;28;20055;-79
2021/01/26 08:41:42;;;;;;;30.33;13.15;;;4.00;83.30;;;;;;5078132;28;20070;-79
2021/01/26 08:44:20;;;;;;;27.42;12.77;;;4.20;83.40;;;;;;5066086;28;20028;-78
2021/01/26 08:46:47;;;;;;;22.77;10.35;;;4.60;85.90;;;;;;5095595;28;20055;-78
2021/01/26 08:49:16;;;;;;;60.63;23.85;;;5.30;86.00;;;;;;5095927;28;20024;-78
2021/01/26 08:51:42;;;;;;;29.50;13.52;;;5.90;85.60;;;;;;5077544;28;20024;-78
2021/01/26 08:54:08;;;;;;;43.30;18.20;;;6.50;82.70;;;;;;5077337;28;20028;-79
2021/01/26 08:56:36;;;;;;;46.42;19.70;;;6.90;80.40;;;;;;5095728;28;20058;-79
2021/01/26 08:59:03;;;;;;;22.67;10.43;;;7.00;77.80;;;;;;5077435;28;20031;-79
2021/01/26 09:01:34;;;;;;;55.60;23.60;;;7.20;77.90;;;;;;5096142;28;20081;-79
2021/01/26 09:04:12;;;;;;;24.83;10.00;;;7.40;75.10;;;;;;5077149;28;20052;-79
2021/01/26 09:06:38;;;;;;;30.17;12.95;;;7.40;74.20;;;;;;5077421;28;20116;-80
2021/01/26 09:09:27;;;;;;;46.10;19.65;;;7.20;72.40;;;;;;5077157;28;20118;-81
2021/01/26 09:11:55;;;;;;;59.10;25.38;;;7.10;72.80;;;;;;5094613;28;20046;-79
2021/01/26 09:14:34;;;;;;;66.38;28.63;;;7.00;73.20;;;;;;5095199;28;20363;-79
2021/01/26 09:17:08;;;;;;;43.83;18.63;;;7.00;73.30;;;;;;5095461;28;20116;-79
2021/01/26 09:19:47;;;;;;;54.08;22.65;;;7.30;74.80;;;;;;5095072;28;20016;-78
2021/01/26 09:22:13;;;;;;;72.95;27.08;;;7.60;72.50;;;;;;5095356;28;20164;-79
2021/01/26 09:24:40;;;;;;;52.05;17.35;;;8.10;73.00;;;;;;5094990;28;20501;-80
2021/01/26 09:27:31;;;;;;;31.20;13.75;;;8.80;73.70;;;;;;5077016;28;20020;-80
2021/01/26 09:30:17;;;;;;;64.57;25.90;;;9.30;68.40;;;;;;5094928;28;20020;-80
2021/01/26 09:32:47;;;;;;;67.25;26.33;;;9.30;67.40;;;;;;5076730;28;20031;-79
2021/01/26 09:35:24;;;;;;;60.80;25.92;;;8.80;63.40;;;;;;5094844;28;20349;-80
2021/01/26 09:38:17;;;;;;;71.40;27.52;;;8.30;64.20;;;;;;5094605;28;20024;-77
2021/01/26 09:41:06;;;;;;;33.10;14.20;;;7.80;64.90;;;;;;5080875;28;20044;-79
2021/01/26 09:43:37;;;;;;;78.18;26.33;;;7.40;65.20;;;;;;5076947;28;20027;-79
2021/01/26 09:46:11;;;;;;;36.30;14.95;;;7.10;66.20;;;;;;5076219;28;20032;-77
2021/01/26 09:48:50;;;;;;;46.15;18.92;;;7.00;68.20;;;;;;5076397;28;20047;-79
2021/01/26 09:51:28;;;;;;;74.10;27.70;;;7.20;70.00;;;;;;5076687;28;20024;-80
2021/01/26 09:54:02;;;;;;;21.88;10.68;;;7.20;67.90;;;;;;5069642;28;20028;-78
2021/01/26 09:56:29;;;;;;;59.88;20.70;;;6.90;67.00;;;;;;5094619;28;20430;-78
2021/01/26 09:58:55;;;;;;;59.05;23.13;;;6.70;67.10;;;;;;5076317;28;20484;-79
2021/01/26 10:01:22;;;;;;;32.63;15.05;;;6.50;67.70;;;;;;5094700;28;20032;-78
2021/01/26 10:03:54;;;;;;;26.00;11.07;;;6.30;68.30;;;;;;5076265;28;20147;-79
2021/01/26 10:06:20;;;;;;;87.72;34.65;;;6.20;68.80;;;;;;5076462;28;20028;-79
2021/01/26 10:08:46;;;;;;;63.72;26.67;;;6.10;69.30;;;;;;5094007;28;20028;-79
2021/01/26 10:11:19;;;;;;;31.00;12.85;;;6.20;70.50;;;;;;5076115;28;20027;-80
2021/01/26 10:13:48;;;;;;;19.10;8.23;;;6.30;70.90;;;;;;5075952;28;20032;-78
2021/01/26 10:16:35;;;;;;;16.08;7.50;;;6.50;71.20;;;;;;5075599;28;20374;-79
2021/01/26 10:19:10;;;;;;;20.23;9.18;;;6.80;70.90;;;;;;5076088;28;20111;-80
2021/01/26 10:21:36;;;;;;;17.33;6.60;;;7.00;68.90;;;;;;5075899;28;20020;-79
2021/01/26 10:24:14;;;;;;;19.30;9.18;;;7.10;68.90;;;;;;5093910;28;20432;-79
2021/01/26 10:26:42;;;;;;;40.50;17.63;;;7.00;68.20;;;;;;5075840;28;20032;-80
2021/01/26 10:29:10;;;;;;;69.80;26.10;;;7.00;68.60;;;;;;5094446;28;20462;-79
2021/01/26 10:32:03;;;;;;;27.92;12.60;;;7.10;68.80;;;;;;5075565;28;20024;-79
2021/01/26 10:34:31;;;;;;;24.85;10.32;;;7.20;68.60;;;;;;5090149;28;20481;-79
2021/01/26 10:37:23;;;;;;;10.90;5.90;;;7.20;68.10;;;;;;5093380;28;20035;-79
2021/01/26 10:40:27;;;;;;;12.93;5.60;;;7.40;69.20;;;;;;5093559;28;20028;-72
2021/01/26 10:43:26;;;;;;;11.82;5.78;;;7.70;67.80;;;;;;5082230;28;20040;-80
2021/01/26 10:45:52;;;;;;;12.18;6.75;;;7.80;67.30;;;;;;5048535;28;20063;-79
2021/01/26 10:48:42;;;;;;;10.55;5.68;;;8.00;66.90;;;;;;5093981;28;20093;-79
2021/01/26 10:51:27;;;;;;;14.63;8.38;;;8.10;66.50;;;;;;5075532;28;20039;-79
2021/01/26 10:53:54;;;;;;;10.73;5.87;;;8.10;66.00;;;;;;5093091;28;20035;-78
2021/01/26 10:56:20;;;;;;;13.80;6.97;;;7.90;65.10;;;;;;5093621;28;20262;-80
2021/01/26 10:58:47;;;;;;;15.27;7.32;;;7.70;65.40;;;;;;5093237;28;20020;-78
2021/01/26 11:01:18;;;;;;;10.38;6.15;;;7.60;65.40;;;;;;5093430;28;20051;-79
2021/01/26 11:03:44;;;;;;;14.30;8.48;;;7.40;65.90;;;;;;5093189;28;20024;-77
2021/01/26 11:06:10;;;;;;;13.77;6.88;;;7.20;65.40;;;;;;5093344;28;20027;-78
2021/01/26 11:08:36;;;;;;;22.75;8.18;;;7.00;66.20;;;;;;5093639;28;20033;-79
2021/01/26 11:11:02;;;;;;;32.13;13.75;;;6.90;66.30;;;;;;5093208;28;20481;-79
2021/01/26 11:13:28;;;;;;;14.68;7.07;;;6.90;66.90;;;;;;5074929;28;20035;-78
2021/01/26 11:15:53;;;;;;;24.08;10.80;;;6.90;67.40;;;;;;5093037;28;20378;-77
2021/01/26 11:18:19;;;;;;;20.08;9.43;;;7.00;67.20;;;;;;5074938;28;20359;-77
2021/01/26 11:20:45;;;;;;;14.48;7.15;;;7.00;67.80;;;;;;5093384;28;20024;-79
2021/01/26 11:23:11;;;;;;;37.00;16.60;;;7.10;67.30;;;;;;5093298;28;20070;-78
2021/01/26 11:25:37;;;;;;;19.92;9.35;;;7.20;66.80;;;;;;5093401;28;20385;-78
2021/01/26 11:28:05;;;;;;;23.00;9.93;;;7.20;66.80;;;;;;5092688;28;20355;-79
2021/01/26 11:30:31;;;;;;;23.27;10.98;;;7.30;67.20;;;;;;5093208;28;20343;-78
2021/01/26 11:32:58;;;;;;;62.90;27.77;;;7.40;66.80;;;;;;5074635;28;20028;-76
2021/01/26 11:35:25;;;;;;;37.35;16.05;;;7.30;66.00;;;;;;5093305;28;20028;-78
2021/01/26 11:37:52;;;;;;;39.80;17.17;;;7.00;65.30;;;;;;5093084;28;20046;-77
2021/01/26 11:40:18;;;;;;;21.70;10.60;;;6.80;64.90;;;;;;5093220;28;20020;-78
2021/01/26 11:42:44;;;;;;;16.17;7.93;;;6.60;65.40;;;;;;5092969;28;20099;-78
2021/01/26 11:45:17;;;;;;;48.85;20.58;;;6.40;66.30;;;;;;5074625;28;20128;-78
2021/01/26 11:47:43;;;;;;;17.98;9.43;;;6.20;65.90;;;;;;5093023;28;20131;-79
2021/01/26 11:50:10;;;;;;;20.98;9.23;;;6.10;66.50;;;;;;5092474;28;20059;-79
2021/01/26 11:52:37;;;;;;;34.92;13.90;;;6.00;67.30;;;;;;5093060;28;20383;-79
2021/01/26 11:55:06;;;;;;;81.85;29.98;;;5.90;67.10;;;;;;5076051;28;20371;-76
2021/01/26 11:57:32;;;;;;;58.88;21.42;;;5.80;67.60;;;;;;5099470;28;20035;-79
2021/01/26 11:59:58;;;;;;;61.67;22.75;;;5.80;68.10;;;;;;5078718;28;20028;-78
2021/01/26 12:02:28;;;;;;;96.25;32.78;;;5.70;68.10;;;;;;5078309;28;20020;-78
2021/01/26 12:04:53;;;;;;;69.60;25.65;;;5.70;68.20;;;;;;5078879;28;20394;-78
2021/01/26 12:07:19;;;;;;;88.97;28.60;;;5.60;68.40;;;;;;5096253;28;20031;-79
2021/01/26 12:09:45;;;;;;;18.80;9.00;;;5.60;69.00;;;;;;5078371;28;20382;-79
2021/01/26 12:12:11;;;;;;;21.30;9.38;;;5.60;69.30;;;;;;5078095;28;20024;-79
2021/01/26 12:14:37;;;;;;;30.75;12.63;;;5.60;69.40;;;;;;5078060;28;20101;-78
2021/01/26 12:17:02;;;;;;;51.40;17.88;;;5.50;68.90;;;;;;5078334;28;20491;-78
2021/01/26 12:19:28;;;;;;;22.63;10.30;;;5.50;68.90;;;;;;5096629;28;20020;-78
2021/01/26 12:21:55;;;;;;;29.30;13.32;;;5.50;69.00;;;;;;5096292;28;20035;-78
2021/01/26 12:24:21;;;;;;;44.80;16.13;;;5.50;69.30;;;;;;5078337;28;20032;-79
2021/01/26 12:26:47;;;;;;;36.88;15.63;;;5.50;69.30;;;;;;5096109;28;20382;-79
2021/01/26 12:29:12;;;;;;;31.25;13.90;;;5.50;69.80;;;;;;5096237;28;20028;-78
2021/01/26 12:31:38;;;;;;;58.15;23.17;;;5.50;70.10;;;;;;5077981;28;20024;-78
2021/01/26 12:34:05;;;;;;;32.55;13.25;;;5.60;70.10;;;;;;5077712;28;20061;-78
2021/01/26 12:36:31;;;;;;;30.55;11.48;;;5.60;70.00;;;;;;5077782;28;20050;-78
2021/01/26 12:38:57;;;;;;;32.65;12.00;;;5.60;70.00;;;;;;5096405;28;20020;-77
2021/01/26 12:41:22;;;;;;;35.83;13.13;;;5.60;69.90;;;;;;5077900;28;20039;-78
2021/01/26 12:43:48;;;;;;;65.97;24.88;;;5.60;70.30;;;;;;5095786;28;20066;-77
2021/01/26 12:46:14;;;;;;;58.17;20.77;;;5.60;70.20;;;;;;5077370;28;20347;-78
2021/01/26 12:48:39;;;;;;;70.13;27.02;;;5.60;70.50;;;;;;5095987;28;20020;-78
2021/01/26 12:51:05;;;;;;;82.88;31.25;;;5.60;70.80;;;;;;5077950;28;20031;-79
2021/01/26 12:53:31;;;;;;;76.68;29.88;;;5.60;71.00;;;;;;5095602;28;20028;-78
2021/01/26 12:55:57;;;;;;;63.05;24.48;;;5.60;71.30;;;;;;5077027;28;20032;-78
2021/01/26 12:58:22;;;;;;;49.90;20.38;;;5.60;71.70;;;;;;5095527;28;20553;-78
2021/01/26 13:00:48;;;;;;;42.47;16.90;;;5.60;71.40;;;;;;5095393;28;20031;-78
2021/01/26 13:03:14;;;;;;;76.10;27.42;;;5.60;70.80;;;;;;5095775;28;20028;-78
2021/01/26 13:05:40;;;;;;;63.30;23.52;;;5.50;70.50;;;;;;5095220;28;20526;-78
2021/01/26 13:08:05;;;;;;;78.82;29.45;;;5.40;70.10;;;;;;5094534;28;20043;-79
2021/01/26 13:10:32;;;;;;;92.57;34.58;;;5.40;70.70;;;;;;5095648;28;20034;-79
2021/01/26 13:12:58;;;;;;;60.83;24.30;;;5.40;71.20;;;;;;5077258;28;20378;-78
2021/01/26 13:15:25;;;;;;;35.40;15.50;;;5.40;71.30;;;;;;5095521;28;20452;-80
2021/01/26 13:17:53;;;;;;;31.17;12.15;;;5.40;71.40;;;;;;5077012;28;20398;-78